createdAt,value
2019-03-28T00:01:12.861Z,7.66
2019-03-28T00:03:41.365Z,7.69
2019-03-28T00:06:09.862Z,7.73
2019-03-28T00:08:38.364Z,7.76
2019-03-28T00:11:06.887Z,7.69
2019-03-28T00:13:35.392Z,7.60
2019-03-28T00:16:04.162Z,7.58
2019-03-28T00:18:32.673Z,7.18
2019-03-28T00:21:01.273Z,7.60
2019-03-28T00:23:32.155Z,7.55
2019-03-28T00:26:00.804Z,7.55
2019-03-28T00:28:29.370Z,7.58
2019-03-28T00:30:57.919Z,7.61
2019-03-28T00:33:26.468Z,7.63
2019-03-28T00:35:54.993Z,7.63
2019-03-28T00:38:23.636Z,7.63
2019-03-28T00:40:52.146Z,7.58
2019-03-28T00:43:23.182Z,7.67
2019-03-28T00:45:51.704Z,7.68
2019-03-28T00:48:20.434Z,7.64
2019-03-28T00:50:49.132Z,7.62
2019-03-28T00:53:17.676Z,7.63
2019-03-28T00:55:46.204Z,7.65
2019-03-28T00:58:17.730Z,7.61
2019-03-28T01:00:46.366Z,7.62
2019-03-28T01:03:15.236Z,7.68
2019-03-28T01:05:43.726Z,7.72
2019-03-28T01:08:12.369Z,7.68
2019-03-28T01:10:40.925Z,7.74
2019-03-28T01:13:09.666Z,7.68
2019-03-28T01:15:38.167Z,7.61
2019-03-28T01:18:06.793Z,7.64
2019-03-28T01:20:35.378Z,7.67
2019-03-28T01:23:03.893Z,7.66
2019-03-28T01:25:32.413Z,7.61
2019-03-28T01:28:00.958Z,7.64
2019-03-28T01:30:29.464Z,7.59
2019-03-28T01:32:59.636Z,7.66
2019-03-28T01:35:29.783Z,7.68
2019-03-28T01:37:59.954Z,7.58
2019-03-28T01:40:28.452Z,7.56
2019-03-28T01:42:57.030Z,7.61
2019-03-28T01:45:25.603Z,7.57
2019-03-28T01:47:54.129Z,7.57
2019-03-28T01:50:25.406Z,7.60
2019-03-28T01:53:01.185Z,7.60
2019-03-28T01:55:27.233Z,7.61
2019-03-28T01:57:55.755Z,7.64
2019-03-28T02:00:24.380Z,7.57
2019-03-28T02:02:52.889Z,7.58
2019-03-28T02:05:21.590Z,7.56
2019-03-28T02:07:50.283Z,7.54
2019-03-28T02:10:18.973Z,7.49
2019-03-28T02:12:47.468Z,7.53
2019-03-28T02:15:16.204Z,7.53
2019-03-28T02:17:44.784Z,7.53
2019-03-28T02:20:13.485Z,7.60
2019-03-28T02:22:41.968Z,7.60
2019-03-28T02:25:10.794Z,7.60
2019-03-28T02:27:39.311Z,7.55
2019-03-28T02:30:11.447Z,7.52
2019-03-28T02:32:40.024Z,7.56
2019-03-28T02:35:09.217Z,7.58
2019-03-28T02:37:37.828Z,7.60
2019-03-28T02:40:10.743Z,7.62
2019-03-28T02:42:39.298Z,7.56
2019-03-28T02:45:08.419Z,7.57
2019-03-28T02:47:36.912Z,7.54
2019-03-28T02:50:09.387Z,7.53
2019-03-28T02:52:37.880Z,7.50
2019-03-28T02:55:10.245Z,7.44
2019-03-28T02:57:42.056Z,7.50
2019-03-28T03:00:09.825Z,7.49
2019-03-28T03:02:38.434Z,7.49
2019-03-28T03:05:10.356Z,7.40
2019-03-28T03:07:38.888Z,7.38
2019-03-28T03:10:09.249Z,7.44
2019-03-28T03:12:37.749Z,7.44
2019-03-28T03:15:08.044Z,7.46
2019-03-28T03:17:36.547Z,7.51
2019-03-28T03:20:06.758Z,7.48
2019-03-28T03:22:35.259Z,7.45
2019-03-28T03:25:05.973Z,7.44
2019-03-28T03:27:37.627Z,7.49
2019-03-28T03:30:08.112Z,7.51
2019-03-28T03:32:36.757Z,7.47
2019-03-28T03:35:06.099Z,7.42
2019-03-28T03:37:34.794Z,7.41
2019-03-28T03:40:05.753Z,7.37
2019-03-28T03:42:34.417Z,7.43
2019-03-28T03:45:06.278Z,7.43
2019-03-28T03:47:34.774Z,7.45
2019-03-28T03:50:07.505Z,7.45
2019-03-28T03:52:36.063Z,7.46
2019-03-28T03:55:06.699Z,7.45
2019-03-28T03:57:35.183Z,7.44
2019-03-28T04:00:05.742Z,7.45
2019-03-28T04:02:34.219Z,7.43
2019-03-28T04:05:02.852Z,7.42
2019-03-28T04:07:31.431Z,7.43
2019-03-28T04:09:59.939Z,7.48
2019-03-28T04:12:31.223Z,7.46
2019-03-28T04:14:59.804Z,7.49
2019-03-28T04:17:28.289Z,7.50
2019-03-28T04:19:56.825Z,7.54
2019-03-28T04:22:25.320Z,7.51
2019-03-28T04:24:53.914Z,7.48
2019-03-28T04:27:22.462Z,7.51
2019-03-28T04:29:50.962Z,7.44
2019-03-28T04:32:20.579Z,7.46
2019-03-28T04:34:49.362Z,7.48
2019-03-28T04:37:18.618Z,7.47
2019-03-28T04:39:49.413Z,7.49
2019-03-28T04:42:20.197Z,7.50
2019-03-28T04:44:48.698Z,7.47
2019-03-28T04:47:17.262Z,7.47
2019-03-28T04:49:45.763Z,7.42
2019-03-28T04:52:14.781Z,7.44
2019-03-28T04:54:43.269Z,7.50
2019-03-28T04:57:11.830Z,7.48
2019-03-28T04:59:40.421Z,7.45
2019-03-28T05:02:09.971Z,7.41
2019-03-28T05:04:38.501Z,7.44
2019-03-28T05:07:07.011Z,7.39
2019-03-28T05:09:35.578Z,7.46
2019-03-28T05:12:04.162Z,7.44
2019-03-28T05:14:32.691Z,7.48
2019-03-28T05:17:01.259Z,7.46
2019-03-28T05:19:29.761Z,7.52
2019-03-28T05:21:58.362Z,7.48
2019-03-28T05:24:26.995Z,7.46
2019-03-28T05:26:56.105Z,7.49
2019-03-28T05:29:26.525Z,7.49
2019-03-28T05:31:54.883Z,7.49
2019-03-28T05:34:23.393Z,7.50
2019-03-28T05:36:52.303Z,7.49
2019-03-28T05:39:20.979Z,7.46
2019-03-28T05:41:49.507Z,7.50
2019-03-28T05:44:18.022Z,7.52
2019-03-28T05:46:46.539Z,7.55
2019-03-28T05:49:15.063Z,7.57
2019-03-28T05:51:43.560Z,7.53
2019-03-28T05:54:13.691Z,7.50
2019-03-28T05:56:42.261Z,7.48
2019-03-28T05:59:11.603Z,7.46
2019-03-28T06:01:42.215Z,7.51
2019-03-28T06:04:10.780Z,7.48
2019-03-28T06:06:39.528Z,7.56
2019-03-28T06:09:11.321Z,7.59
2019-03-28T06:11:39.864Z,7.56
2019-03-28T06:14:19.652Z,7.59
2019-03-28T06:16:48.176Z,7.63
2019-03-28T06:19:16.705Z,7.60
2019-03-28T06:21:45.228Z,7.64
2019-03-28T06:24:16.496Z,7.64
2019-03-28T06:26:49.962Z,7.63
2019-03-28T06:29:24.022Z,7.82
2019-03-28T06:31:55.227Z,7.94
2019-03-28T06:34:20.431Z,7.95
2019-03-28T06:36:48.903Z,7.96
2019-03-28T06:39:17.391Z,8.04
2019-03-28T06:41:45.903Z,8.08
2019-03-28T06:44:14.414Z,8.10
2019-03-28T06:46:42.952Z,8.13
2019-03-28T06:49:11.795Z,8.15
2019-03-28T06:51:40.301Z,8.20
2019-03-28T06:54:08.807Z,8.23
2019-03-28T06:56:37.327Z,8.19
2019-03-28T06:59:06.007Z,8.21
2019-03-28T07:01:34.524Z,8.17
2019-03-28T07:04:06.123Z,8.26
2019-03-28T07:06:34.694Z,8.28
2019-03-28T07:09:04.265Z,8.31
2019-03-28T07:11:33.229Z,8.34
2019-03-28T07:14:02.378Z,8.37
2019-03-28T07:16:30.941Z,8.38
2019-03-28T07:18:59.465Z,8.36
2019-03-28T07:21:30.157Z,8.45
2019-03-28T07:23:58.697Z,8.46
2019-03-28T07:26:27.275Z,8.51
2019-03-28T07:28:55.945Z,8.53
2019-03-28T07:31:24.535Z,8.51
2019-03-28T07:33:55.785Z,8.56
2019-03-28T07:36:24.266Z,8.58
2019-03-28T07:38:52.820Z,8.64
2019-03-28T07:41:24.178Z,8.65
2019-03-28T07:43:52.678Z,8.72
2019-03-28T07:46:21.182Z,8.71
2019-03-28T07:48:49.710Z,8.74
2019-03-28T07:51:18.212Z,8.75
2019-03-28T07:53:47.419Z,8.70
2019-03-28T07:56:16.008Z,8.77
2019-03-28T07:58:44.619Z,8.75
2019-03-28T08:01:13.097Z,8.74
2019-03-28T08:03:41.617Z,8.75
2019-03-28T08:06:12.795Z,8.76
2019-03-28T08:08:44.056Z,8.79
2019-03-28T08:11:11.166Z,8.77
2019-03-28T08:13:39.696Z,8.79
2019-03-28T08:16:08.195Z,8.83
2019-03-28T08:18:38.245Z,8.86
2019-03-28T08:21:06.753Z,8.86
2019-03-28T08:23:35.618Z,8.91
2019-03-28T08:26:04.513Z,8.93
2019-03-28T08:28:33.066Z,8.93
2019-03-28T08:31:04.510Z,8.96
2019-03-28T08:33:33.576Z,8.95
2019-03-28T08:36:04.562Z,9.03
2019-03-28T08:38:35.750Z,9.07
2019-03-28T08:41:06.978Z,9.10
2019-03-28T08:43:36.108Z,9.11
2019-03-28T08:46:04.830Z,9.21
2019-03-28T08:48:34.854Z,9.29
2019-03-28T08:51:06.576Z,9.27
2019-03-28T08:53:37.640Z,9.32
2019-03-28T08:56:06.040Z,9.32
2019-03-28T08:58:37.870Z,9.40
2019-03-28T09:01:06.393Z,9.52
2019-03-28T09:03:34.894Z,9.63
2019-03-28T09:06:03.590Z,9.74
2019-03-28T09:08:32.044Z,9.90
2019-03-28T09:11:00.569Z,9.97
2019-03-28T09:13:29.124Z,9.97
2019-03-28T09:15:57.695Z,10.18
2019-03-28T09:18:26.218Z,10.35
2019-03-28T09:20:54.812Z,10.51
2019-03-28T09:23:23.388Z,10.57
2019-03-28T09:25:52.054Z,10.63
2019-03-28T09:28:20.613Z,10.58
2019-03-28T09:30:49.849Z,10.68
2019-03-28T09:33:18.549Z,10.72
2019-03-28T09:35:47.177Z,10.80
2019-03-28T09:38:17.230Z,10.92
2019-03-28T09:40:57.042Z,11.12
2019-03-28T09:43:25.574Z,11.14
2019-03-28T09:45:54.155Z,11.22
2019-03-28T09:48:22.857Z,11.26
2019-03-28T09:50:51.421Z,11.39
2019-03-28T09:53:19.951Z,11.36
2019-03-28T09:55:48.509Z,11.37
2019-03-28T09:58:17.007Z,11.40
2019-03-28T10:00:46.089Z,11.48
2019-03-28T10:03:17.404Z,11.49
2019-03-28T10:05:45.902Z,11.36
2019-03-28T10:08:14.498Z,11.28
2019-03-28T10:10:43.136Z,11.30
2019-03-28T10:13:13.167Z,11.23
2019-03-28T10:15:41.840Z,11.21
2019-03-28T10:18:10.425Z,11.16
2019-03-28T10:20:41.013Z,11.14
2019-03-28T10:23:12.587Z,11.21
2019-03-28T10:25:41.397Z,11.30
2019-03-28T10:28:09.881Z,11.38
2019-03-28T10:30:40.768Z,11.40
2019-03-28T10:33:09.577Z,11.47
2019-03-28T10:35:38.238Z,11.42
2019-03-28T10:38:08.541Z,11.41
2019-03-28T10:40:37.168Z,11.43
2019-03-28T10:43:07.283Z,11.51
2019-03-28T10:45:36.833Z,11.51
2019-03-28T10:48:05.471Z,11.41
2019-03-28T10:50:41.486Z,11.36
2019-03-28T10:53:04.349Z,11.38
2019-03-28T10:55:32.873Z,11.32
2019-03-28T10:58:17.232Z,11.25
2019-03-28T11:00:32.785Z,11.18
2019-03-28T11:03:01.359Z,11.16
2019-03-28T11:05:32.633Z,11.18
2019-03-28T11:08:01.142Z,11.14
2019-03-28T11:10:30.640Z,11.12
2019-03-28T11:12:59.485Z,11.21
2019-03-28T11:15:28.039Z,11.18
2019-03-28T11:17:56.638Z,11.09
2019-03-28T11:20:25.496Z,11.17
2019-03-28T11:22:54.012Z,11.21
2019-03-28T11:25:24.378Z,11.23
2019-03-28T11:27:52.908Z,11.28
2019-03-28T11:30:23.024Z,11.26
2019-03-28T11:32:51.522Z,11.24
2019-03-28T11:35:21.875Z,11.22
2019-03-28T11:37:53.358Z,11.22
2019-03-28T11:40:24.571Z,11.22
2019-03-28T11:42:55.558Z,11.17
2019-03-28T11:45:26.940Z,11.18
2019-03-28T11:47:55.980Z,11.13
2019-03-28T11:50:24.632Z,11.08
2019-03-28T11:52:53.248Z,11.09
2019-03-28T11:55:21.827Z,11.07
2019-03-28T11:57:50.356Z,11.06
2019-03-28T12:00:19.704Z,11.00
2019-03-28T12:02:48.214Z,11.03
2019-03-28T12:05:16.893Z,11.00
2019-03-28T12:07:45.488Z,11.01
2019-03-28T12:10:14.550Z,11.04
2019-03-28T12:12:43.207Z,11.04
2019-03-28T12:15:12.981Z,11.04
2019-03-28T12:17:41.550Z,10.98
2019-03-28T12:20:11.703Z,11.02
2019-03-28T12:22:40.348Z,11.01
2019-03-28T12:25:09.042Z,10.98
2019-03-28T12:27:37.715Z,11.00
2019-03-28T12:30:08.553Z,11.01
2019-03-28T12:32:37.089Z,10.97
2019-03-28T12:35:07.860Z,10.91
2019-03-28T12:37:36.842Z,10.94
2019-03-28T12:40:08.504Z,10.97
2019-03-28T12:42:37.166Z,11.04
2019-03-28T12:45:12.951Z,11.05
2019-03-28T12:47:43.145Z,11.09
2019-03-28T12:50:13.191Z,11.10
2019-03-28T12:52:41.846Z,11.11
2019-03-28T12:55:10.983Z,11.05
2019-03-28T12:57:39.626Z,11.07
2019-03-28T13:00:10.381Z,11.06
2019-03-28T13:02:39.471Z,11.11
2019-03-28T13:05:09.844Z,11.11
2019-03-28T13:07:38.374Z,11.10
2019-03-28T13:10:12.589Z,11.06
2019-03-28T13:12:41.173Z,11.07
2019-03-28T13:15:10.390Z,11.07
2019-03-28T13:17:38.911Z,11.05
2019-03-28T13:20:09.462Z,11.03
2019-03-28T13:22:38.045Z,11.00
2019-03-28T13:25:09.880Z,11.00
2019-03-28T13:27:38.435Z,10.97
2019-03-28T13:30:10.250Z,11.01
2019-03-28T13:32:41.972Z,10.96
2019-03-28T13:35:09.747Z,10.97
2019-03-28T13:37:38.228Z,10.99
2019-03-28T13:40:08.664Z,10.93
2019-03-28T13:42:40.930Z,10.95
2019-03-28T13:45:11.555Z,10.95
2019-03-28T13:47:40.125Z,10.98
2019-03-28T13:50:10.938Z,11.04
2019-03-28T13:52:41.890Z,11.09
2019-03-28T13:55:13.546Z,11.19
2019-03-28T13:57:43.507Z,11.27
2019-03-28T14:00:13.709Z,11.27
2019-03-28T14:02:55.495Z,11.27
2019-03-28T14:05:14.117Z,11.30
2019-03-28T14:07:42.579Z,11.36
2019-03-28T14:10:11.543Z,11.34
2019-03-28T14:12:40.043Z,11.37
2019-03-28T14:15:12.243Z,11.31
2019-03-28T14:17:40.723Z,11.31
2019-03-28T14:20:14.644Z,11.35
2019-03-28T14:22:43.172Z,11.32
2019-03-28T14:25:12.054Z,11.29
2019-03-28T14:27:40.530Z,11.26
2019-03-28T14:30:11.636Z,11.19
2019-03-28T14:32:52.496Z,11.21
2019-03-28T14:35:10.808Z,11.16
2019-03-28T14:37:40.731Z,11.14
2019-03-28T14:40:11.833Z,11.11
2019-03-28T14:42:40.985Z,11.11
2019-03-28T14:45:09.952Z,11.08
2019-03-28T14:47:42.006Z,11.08
2019-03-28T14:50:11.994Z,11.08
2019-03-28T14:52:40.546Z,11.08
2019-03-28T14:55:09.220Z,11.09
2019-03-28T14:57:38.250Z,11.05
2019-03-28T15:00:10.005Z,11.05
2019-03-28T15:02:38.555Z,11.04
2019-03-28T15:05:07.324Z,11.02
2019-03-28T15:07:35.798Z,10.97
2019-03-28T15:10:07.013Z,11.02
2019-03-28T15:12:35.478Z,10.99
2019-03-28T15:15:04.561Z,10.96
2019-03-28T15:17:33.032Z,10.97
2019-03-28T15:20:01.617Z,10.99
2019-03-28T15:22:30.102Z,10.99
2019-03-28T15:24:58.586Z,10.98
2019-03-28T15:27:28.518Z,11.00
2019-03-28T15:29:57.030Z,11.03
2019-03-28T15:32:25.571Z,11.03
2019-03-28T15:34:54.057Z,11.04
2019-03-28T15:37:27.478Z,11.06
2019-03-28T15:40:18.714Z,11.05
2019-03-28T15:42:47.523Z,11.03
2019-03-28T15:45:16.162Z,11.03
2019-03-28T15:47:44.634Z,11.06
2019-03-28T15:50:13.321Z,11.05
2019-03-28T15:52:41.878Z,11.06
2019-03-28T15:55:10.544Z,11.06
2019-03-28T15:57:40.866Z,11.05
2019-03-28T16:00:11.017Z,11.04
2019-03-28T16:02:42.809Z,11.03
2019-03-28T16:05:14.553Z,11.03
2019-03-28T16:07:43.655Z,10.99
2019-03-28T16:10:14.770Z,10.98
2019-03-28T16:12:44.356Z,10.97
2019-03-28T16:15:14.425Z,10.96
2019-03-28T16:17:42.973Z,10.94
2019-03-28T16:20:12.116Z,10.95
2019-03-28T16:22:40.579Z,10.91
2019-03-28T16:25:09.349Z,10.91
2019-03-28T16:27:37.828Z,10.91
2019-03-28T16:30:30.108Z,10.87
2019-03-28T16:32:58.650Z,10.88
2019-03-28T16:35:27.160Z,10.87
2019-03-28T16:37:55.656Z,10.85
2019-03-28T16:40:24.254Z,10.84
2019-03-28T16:42:52.747Z,10.82
2019-03-28T16:45:21.397Z,10.81
2019-03-28T16:47:49.871Z,10.79
2019-03-28T16:50:19.259Z,10.78
2019-03-28T16:52:48.287Z,10.78
2019-03-28T16:55:26.229Z,10.76
2019-03-28T16:57:47.263Z,10.75
2019-03-28T17:00:16.743Z,10.73
2019-03-28T17:02:56.088Z,10.73
2019-03-28T17:05:25.956Z,10.69
2019-03-28T17:07:54.618Z,10.66
2019-03-28T17:10:42.431Z,10.66
2019-03-28T17:13:16.382Z,10.65
2019-03-28T17:15:47.272Z,10.64
2019-03-28T17:18:18.445Z,10.63
2019-03-28T17:20:46.072Z,10.64
2019-03-28T17:23:14.686Z,10.63
2019-03-28T17:25:43.245Z,10.61
2019-03-28T17:28:14.924Z,10.61
2019-03-28T17:30:48.314Z,10.60
2019-03-28T17:33:18.953Z,10.58
2019-03-28T17:35:49.558Z,10.56
2019-03-28T17:38:17.752Z,10.55
2019-03-28T17:40:46.698Z,10.55
2019-03-28T17:43:15.895Z,10.55
2019-03-28T17:45:44.858Z,10.54
2019-03-28T17:48:13.457Z,10.53
2019-03-28T17:50:43.715Z,10.53
2019-03-28T17:53:12.519Z,10.51
2019-03-28T17:55:40.991Z,10.52
2019-03-28T17:58:13.708Z,10.48
2019-03-28T18:00:46.840Z,10.47
2019-03-28T18:03:15.392Z,10.45
2019-03-28T18:05:57.131Z,10.43
2019-03-28T18:08:14.403Z,10.42
2019-03-28T18:10:44.458Z,10.40
2019-03-28T18:13:16.146Z,10.40
2019-03-28T18:15:47.951Z,10.40
2019-03-28T18:18:16.467Z,10.39
2019-03-28T18:20:44.962Z,10.38
2019-03-28T18:23:13.433Z,10.37
2019-03-28T18:25:44.912Z,10.37
2019-03-28T18:28:15.331Z,10.37
2019-03-28T18:30:43.902Z,10.30
2019-03-28T18:33:12.436Z,10.30
2019-03-28T18:35:41.026Z,10.29
2019-03-28T18:38:10.697Z,10.29
2019-03-28T18:40:40.231Z,10.31
2019-03-28T18:43:08.872Z,10.26
2019-03-28T18:45:37.497Z,10.23
2019-03-28T18:48:08.876Z,10.21
2019-03-28T18:50:36.381Z,10.17
2019-03-28T18:53:06.951Z,10.19
2019-03-28T18:55:41.519Z,10.18
2019-03-28T18:58:10.047Z,10.18
2019-03-28T19:00:38.678Z,10.16
2019-03-28T19:03:10.171Z,10.16
2019-03-28T19:05:45.366Z,10.14
2019-03-28T19:08:13.910Z,10.14
2019-03-28T19:10:45.405Z,10.10
2019-03-28T19:13:14.167Z,10.09
2019-03-28T19:15:42.827Z,10.08
2019-03-28T19:18:13.196Z,10.07
2019-03-28T19:20:41.819Z,10.06
2019-03-28T19:23:10.869Z,10.05
2019-03-28T19:25:42.847Z,10.04
2019-03-28T19:28:27.643Z,10.04
2019-03-28T19:30:46.980Z,10.06
2019-03-28T19:33:15.477Z,10.03
2019-03-28T19:35:45.240Z,10.04
2019-03-28T19:38:13.811Z,10.06
2019-03-28T19:40:42.452Z,10.05
2019-03-28T19:43:20.454Z,10.01
2019-03-28T19:45:46.706Z,9.99
2019-03-28T19:48:15.258Z,9.98
2019-03-28T19:50:46.540Z,9.99
2019-03-28T19:53:19.328Z,9.98
2019-03-28T19:55:49.362Z,9.96
2019-03-28T19:58:17.897Z,9.97
2019-03-28T20:00:46.539Z,9.97
2019-03-28T20:03:15.002Z,9.97
2019-03-28T20:05:47.823Z,9.96
2019-03-28T20:08:15.961Z,9.94
2019-03-28T20:10:50.296Z,9.92
2019-03-28T20:13:23.869Z,9.91
2019-03-28T20:15:52.806Z,9.91
2019-03-28T20:18:21.355Z,9.91
2019-03-28T20:20:49.912Z,9.90
2019-03-28T20:23:18.560Z,9.90
2019-03-28T20:25:47.162Z,9.90
2019-03-28T20:28:16.394Z,9.90
2019-03-28T20:30:45.103Z,9.89
2019-03-28T20:33:13.569Z,9.89
2019-03-28T20:35:42.198Z,9.87
2019-03-28T20:38:10.744Z,9.87
2019-03-28T20:40:39.401Z,9.87
2019-03-28T20:43:10.643Z,9.88
2019-03-28T20:45:39.180Z,9.87
2019-03-28T20:48:12.137Z,9.86
2019-03-28T20:50:45.518Z,9.85
2019-03-28T20:53:13.392Z,9.85
2019-03-28T20:55:44.859Z,9.85
2019-03-28T20:58:13.545Z,9.84
2019-03-28T21:00:44.399Z,9.85
2019-03-28T21:03:15.024Z,9.84
2019-03-28T21:05:45.080Z,9.81
2019-03-28T21:08:13.869Z,9.83
2019-03-28T21:10:42.415Z,9.81
2019-03-28T21:13:10.993Z,9.84
2019-03-28T21:15:39.539Z,9.80
2019-03-28T21:18:08.074Z,9.83
2019-03-28T21:20:36.791Z,9.80
2019-03-28T21:23:05.531Z,9.81
2019-03-28T21:25:34.033Z,9.80
2019-03-28T21:28:02.594Z,9.78
2019-03-28T21:30:31.176Z,9.80
2019-03-28T21:32:59.740Z,9.77
2019-03-28T21:35:28.286Z,9.77
2019-03-28T21:37:56.788Z,9.76
2019-03-28T21:40:25.319Z,9.75
2019-03-28T21:42:53.776Z,9.75
2019-03-28T21:45:22.555Z,9.73
2019-03-28T21:47:51.149Z,9.73
2019-03-28T21:50:19.778Z,9.72
2019-03-28T21:52:48.435Z,9.73
2019-03-28T21:55:18.711Z,9.73
2019-03-28T21:57:47.193Z,9.73
2019-03-28T22:00:17.182Z,9.71
2019-03-28T22:02:45.786Z,9.72
2019-03-28T22:05:14.512Z,9.73
2019-03-28T22:07:42.995Z,9.71
2019-03-28T22:10:11.745Z,9.71
2019-03-28T22:12:40.307Z,9.72
2019-03-28T22:15:09.691Z,9.71
2019-03-28T22:17:41.972Z,9.70
2019-03-28T22:20:10.968Z,9.72
2019-03-28T22:22:39.607Z,9.72
2019-03-28T22:25:08.348Z,9.71
2019-03-28T22:27:36.943Z,9.69
2019-03-28T22:30:07.202Z,9.69
2019-03-28T22:32:35.752Z,9.69
2019-03-28T22:35:28.727Z,9.69
2019-03-28T22:37:57.214Z,9.68
2019-03-28T22:40:25.758Z,9.65
2019-03-28T22:42:54.245Z,9.65
2019-03-28T22:45:22.932Z,9.66
2019-03-28T22:47:51.438Z,9.65
2019-03-28T22:50:20.017Z,9.65
2019-03-28T22:52:48.532Z,9.65
2019-03-28T22:55:17.184Z,9.65
2019-03-28T22:57:45.688Z,9.64
2019-03-28T23:00:15.558Z,9.64
2019-03-28T23:02:44.180Z,9.63
2019-03-28T23:05:13.506Z,9.62
2019-03-28T23:07:41.988Z,9.61
2019-03-28T23:10:11.463Z,9.60
2019-03-28T23:12:40.058Z,9.60
2019-03-28T23:15:10.856Z,9.59
2019-03-28T23:17:39.480Z,9.59
2019-03-28T23:20:09.921Z,9.58
2019-03-28T23:22:38.492Z,9.57
2019-03-28T23:25:09.113Z,9.57
2019-03-28T23:27:37.673Z,9.55
2019-03-28T23:30:09.351Z,9.55
2019-03-28T23:32:38.754Z,9.53
2019-03-28T23:35:08.213Z,9.53
2019-03-28T23:37:36.701Z,9.51
2019-03-28T23:40:09.899Z,9.51
2019-03-28T23:42:38.478Z,9.50
2019-03-28T23:45:11.896Z,9.50
2019-03-28T23:47:41.940Z,9.51
2019-03-28T23:50:10.585Z,9.49
2019-03-28T23:52:39.069Z,9.48
2019-03-28T23:55:09.281Z,9.47
2019-03-28T23:57:37.753Z,9.45
